Time;durP1;ratioP1;P1;durP2;ratioP2;P2;SDS_P1;SDS_P2;PMS_P1;PMS_P2;Temp;Humidity;BMP_temperature;BMP_pressure;BME280_temperature;BME280_humidity;BME280_pressure;Samples;Min_cycle;Max_cycle;Signal;HPM_P1;HPM_P2
2023/12/03 00:01:40;;;;;;;;;;;3.00;99.90;;;;;;7338488;19;108909;-83
2023/12/03 00:04:08;;;;;;;;;;;3.00;99.90;;;;;;7337260;19;110140;-83
2023/12/03 00:06:35;;;;;;;;;;;3.00;99.90;;;;;;7337670;19;108444;-83
2023/12/03 00:09:05;;;;;;;;;;;3.00;99.90;;;;;;7337139;19;109553;-83
2023/12/03 00:11:32;;;;;;;;;;;3.00;99.90;;;;;;7338318;19;110981;-84
2023/12/03 00:14:00;;;;;;;;;;;3.00;99.90;;;;;;7337657;19;109146;-84
2023/12/03 00:16:27;;;;;;;;;;;3.00;99.90;;;;;;7336001;19;110337;-83
2023/12/03 00:18:54;;;;;;;;;;;3.10;99.90;;;;;;7338467;19;108352;-83
2023/12/03 00:21:21;;;;;;;;;;;3.10;99.90;;;;;;7340246;19;108982;-83
2023/12/03 00:23:49;;;;;;;;;;;3.10;99.90;;;;;;7337202;19;110118;-83
2023/12/03 00:26:16;;;;;;;;;;;3.10;99.90;;;;;;7335248;19;108587;-83
2023/12/03 00:28:43;;;;;;;;;;;3.10;99.90;;;;;;7337861;19;112665;-83
2023/12/03 00:31:10;;;;;;;;;;;3.10;99.90;;;;;;7335412;19;110921;-83
2023/12/03 00:33:37;;;;;;;;;;;3.10;99.90;;;;;;7343454;19;108908;-83
2023/12/03 00:36:05;;;;;;;;;;;3.10;99.90;;;;;;7337605;19;110810;-83
2023/12/03 00:38:32;;;;;;;;;;;3.10;99.90;;;;;;7337234;19;109693;-83
2023/12/03 00:40:59;;;;;;;;;;;3.10;99.90;;;;;;7348687;19;109048;-84
2023/12/03 00:43:26;;;;;;;;;;;3.10;99.90;;;;;;7348803;19;109434;-84
2023/12/03 00:45:54;;;;;;;;;;;3.10;99.90;;;;;;7359092;19;108403;-84
2023/12/03 00:48:24;;;;;;;;;;;3.10;99.90;;;;;;7383492;19;107999;-83
2023/12/03 00:50:51;;;;;;;;;;;3.10;99.90;;;;;;7377403;19;108820;-83
2023/12/03 00:53:18;;;;;;;;;;;3.10;99.90;;;;;;7380153;19;107589;-83
2023/12/03 00:55:45;;;;;;;;;;;3.10;99.90;;;;;;7381522;19;108793;-83
2023/12/03 00:58:12;;;;;;;;;;;3.20;99.90;;;;;;7371497;19;108005;-84
2023/12/03 01:00:40;;;;;;;;;;;3.20;99.90;;;;;;7355484;19;109472;-84
2023/12/03 01:03:07;;;;;;;;;;;3.20;99.90;;;;;;7350695;19;110236;-84
2023/12/03 01:05:34;;;;;;;;;;;3.20;99.90;;;;;;7345548;19;108660;-84
2023/12/03 01:08:01;;;;;;;;;;;3.20;99.90;;;;;;7335403;19;108923;-83
2023/12/03 01:10:30;;;;;;;;;;;3.20;99.90;;;;;;7333635;19;109871;-84
2023/12/03 01:12:57;;;;;;;;;;;3.20;99.90;;;;;;7347640;19;108358;-84
2023/12/03 01:15:25;;;;;;;;;;;3.20;99.90;;;;;;7334494;19;109198;-84
2023/12/03 01:17:52;;;;;;;;;;;3.20;99.90;;;;;;7340288;19;110875;-83
2023/12/03 01:20:19;;;;;;;;;;;3.20;99.90;;;;;;7338228;19;110428;-84
2023/12/03 01:22:46;;;;;;;;;;;3.20;99.90;;;;;;7333199;19;111966;-84
2023/12/03 01:25:13;;;;;;;;;;;3.10;99.90;;;;;;7334118;19;108472;-83
2023/12/03 01:27:40;;;;;;;;;;;3.10;99.90;;;;;;7333595;19;109102;-84
2023/12/03 01:30:34;;;;;;;;;;;3.10;99.90;;;;;;7331335;19;110208;-86
2023/12/03 01:33:31;;;;;;;;;;;3.10;99.90;;;;;;7325100;19;109631;-85
2023/12/03 01:35:59;;;;;;;;;;;3.10;99.90;;;;;;7329455;19;109470;-83
2023/12/03 01:38:26;;;;;;;;;;;3.10;99.90;;;;;;7328021;19;114467;-83
2023/12/03 01:40:54;;;;;;;;;;;3.10;99.90;;;;;;7343025;19;108534;-84
2023/12/03 01:43:21;;;;;;;;;;;3.10;99.90;;;;;;7337147;19;110166;-84
2023/12/03 01:45:49;;;;;;;;;;;3.10;99.90;;;;;;7339252;19;108794;-84
2023/12/03 01:48:16;;;;;;;;;;;3.00;99.90;;;;;;7337671;19;109158;-83
2023/12/03 01:50:44;;;;;;;;;;;3.00;99.90;;;;;;7337460;19;110489;-83
2023/12/03 01:53:12;;;;;;;;;;;3.00;99.90;;;;;;7341137;19;109005;-83
2023/12/03 01:55:43;;;;;;;;;;;2.90;99.90;;;;;;7341038;19;111646;-84
2023/12/03 01:58:10;;;;;;;;;;;2.90;99.90;;;;;;7340976;19;109387;-84
2023/12/03 02:00:37;;;;;;;;;;;2.80;99.90;;;;;;7347244;19;108811;-84
2023/12/03 02:03:05;;;;;;;;;;;2.80;99.90;;;;;;7338027;19;109105;-84
2023/12/03 02:05:32;;;;;;;;;;;2.80;99.90;;;;;;7338771;19;108761;-84
2023/12/03 02:08:00;;;;;;;;;;;2.80;99.90;;;;;;7337408;19;110832;-84
2023/12/03 02:10:27;;;;;;;;;;;2.80;99.90;;;;;;7338260;19;110425;-68
2023/12/03 02:12:57;;;;;;;;;;;2.70;99.90;;;;;;7336938;19;108890;-68
2023/12/03 02:15:25;;;;;;;;;;;2.70;99.90;;;;;;7335545;19;109054;-68
2023/12/03 02:17:52;;;;;;;;;;;2.60;99.90;;;;;;7337410;19;110435;-69
2023/12/03 02:20:19;;;;;;;;;;;2.60;99.90;;;;;;7338007;19;109570;-69
2023/12/03 02:22:59;;;;;;;;;;;2.50;99.90;;;;;;7344364;19;108899;-69
2023/12/03 02:25:27;;;;;;;;;;;2.50;99.90;;;;;;7335819;19;109440;-68
2023/12/03 02:27:54;;;;;;;;;;;2.40;99.90;;;;;;7334187;19;108744;-68
2023/12/03 02:30:21;;;;;;;;;;;2.40;99.90;;;;;;7335722;19;109116;-68
2023/12/03 02:32:48;;;;;;;;;;;2.40;99.90;;;;;;7335155;19;109384;-68
2023/12/03 02:35:15;;;;;;;;;;;2.30;99.90;;;;;;7335318;19;109708;-68
2023/12/03 02:37:42;;;;;;;;;;;2.30;99.90;;;;;;7336447;19;109410;-68
2023/12/03 02:40:09;;;;;;;;;;;2.20;99.90;;;;;;7334938;19;109686;-68
2023/12/03 02:42:36;;;;;;;;;;;2.10;99.90;;;;;;7333048;19;110420;-69
2023/12/03 02:45:05;;;;;;;;;;;2.00;99.90;;;;;;7342296;19;109247;-69
2023/12/03 02:47:32;;;;;;;;;;;2.00;99.90;;;;;;7335152;19;108997;-68
2023/12/03 02:50:00;;;;;;;;;;;2.00;99.90;;;;;;7335289;19;109615;-68
2023/12/03 02:52:27;;;;;;;;;;;1.90;99.90;;;;;;7334615;19;108366;-68
2023/12/03 02:54:54;;;;;;;;;;;1.90;99.90;;;;;;7333811;19;109063;-68
2023/12/03 02:57:21;;;;;;;;;;;1.90;99.90;;;;;;7331283;19;110109;-68
2023/12/03 02:59:48;;;;;;;;;;;1.90;99.90;;;;;;7338130;19;109039;-68
2023/12/03 03:02:15;;;;;;;;;;;1.80;99.90;;;;;;7334913;19;112010;-68
2023/12/03 03:04:43;;;;;;;;;;;1.80;99.90;;;;;;7336630;19;113092;-75
2023/12/03 03:07:10;;;;;;;;;;;1.80;99.90;;;;;;7340499;19;108766;-71
2023/12/03 03:09:37;;;;;;;;;;;1.80;99.90;;;;;;7335364;19;109159;-68
2023/12/03 03:12:04;;;;;;;;;;;1.80;99.90;;;;;;7335780;19;109796;-69
2023/12/03 03:14:31;;;;;;;;;;;1.80;99.90;;;;;;7334062;19;109143;-68
2023/12/03 03:16:58;;;;;;;;;;;1.80;99.90;;;;;;7334002;19;109104;-68
2023/12/03 03:19:25;;;;;;;;;;;1.70;99.90;;;;;;7332662;19;109945;-68
2023/12/03 03:21:53;;;;;;;;;;;1.70;99.90;;;;;;7337700;19;108875;-68
2023/12/03 03:24:20;;;;;;;;;;;1.70;99.90;;;;;;7332572;19;109184;-69
2023/12/03 03:26:47;;;;;;;;;;;1.60;99.90;;;;;;7334350;19;108991;-68
2023/12/03 03:29:14;;;;;;;;;;;1.60;99.90;;;;;;7339774;19;109268;-68
2023/12/03 03:31:42;;;;;;;;;;;1.60;99.90;;;;;;7332400;19;109408;-69
2023/12/03 03:34:09;;;;;;;;;;;1.60;99.90;;;;;;7332672;19;109469;-76
2023/12/03 03:36:36;;;;;;;;;;;1.50;99.90;;;;;;7330842;19;109253;-76
2023/12/03 03:39:03;;;;;;;;;;;1.50;99.90;;;;;;7334463;19;108811;-77
2023/12/03 03:41:30;;;;;;;;;;;1.50;99.90;;;;;;7327744;19;109873;-69
2023/12/03 03:43:57;;;;;;;;;;;1.40;99.90;;;;;;7335137;19;109422;-68
2023/12/03 03:46:24;;;;;;;;;;;1.40;99.90;;;;;;7333320;19;110734;-70
2023/12/03 03:48:52;;;;;;;;;;;1.40;99.90;;;;;;7335853;19;110081;-68
2023/12/03 03:51:19;;;;;;;;;;;1.40;99.90;;;;;;7340387;19;109464;-84
2023/12/03 03:53:46;;;;;;;;;;;1.30;99.90;;;;;;7337072;19;110688;-83
2023/12/03 03:56:14;;;;;;;;;;;1.30;99.90;;;;;;7336922;19;110169;-84
2023/12/03 03:58:41;;;;;;;;;;;1.30;99.90;;;;;;7342906;19;108637;-84
2023/12/03 04:01:09;;;;;;;;;;;1.30;99.90;;;;;;7335521;19;111284;-84
2023/12/03 04:03:36;;;;;;;;;;;1.30;99.90;;;;;;7359068;19;109442;-85
2023/12/03 04:06:04;;;;;;;;;;;1.20;99.90;;;;;;7374937;19;107336;-83
2023/12/03 04:08:31;;;;;;;;;;;1.20;99.90;;;;;;7339615;19;110681;-68
2023/12/03 04:11:04;;;;;;;;;;;1.10;99.90;;;;;;7340330;19;109778;-69
2023/12/03 04:13:31;;;;;;;;;;;1.10;99.90;;;;;;7331373;19;109112;-69
2023/12/03 04:15:58;;;;;;;;;;;1.10;99.90;;;;;;7332038;19;111261;-68
2023/12/03 04:18:26;;;;;;;;;;;1.10;99.90;;;;;;7328038;19;109678;-68
2023/12/03 04:20:53;;;;;;;;;;;1.10;99.90;;;;;;7337711;19;114003;-68
2023/12/03 04:23:20;;;;;;;;;;;1.10;99.90;;;;;;7326436;19;109781;-68
2023/12/03 04:25:48;;;;;;;;;;;1.10;99.90;;;;;;7333580;19;109457;-68
2023/12/03 04:28:15;;;;;;;;;;;1.10;99.90;;;;;;7334735;19;109730;-68
2023/12/03 04:30:42;;;;;;;;;;;1.10;99.90;;;;;;7332442;19;109446;-68
2023/12/03 04:33:09;;;;;;;;;;;1.00;99.90;;;;;;7336092;19;109905;-68
2023/12/03 04:35:36;;;;;;;;;;;1.00;99.90;;;;;;7330432;19;109984;-68
2023/12/03 04:38:04;;;;;;;;;;;1.00;99.90;;;;;;7331213;19;108550;-68
2023/12/03 04:40:31;;;;;;;;;;;1.00;99.90;;;;;;7330633;19;109226;-68
2023/12/03 04:42:58;;;;;;;;;;;1.00;99.90;;;;;;7333091;19;109236;-68
2023/12/03 04:45:25;;;;;;;;;;;1.00;99.90;;;;;;7329898;19;109630;-68
2023/12/03 04:47:52;;;;;;;;;;;1.00;99.90;;;;;;7333083;19;110237;-68
2023/12/03 04:50:19;;;;;;;;;;;1.10;99.90;;;;;;7331179;19;110461;-68
2023/12/03 04:52:47;;;;;;;;;;;1.10;99.90;;;;;;7331015;19;108515;-68
2023/12/03 04:55:14;;;;;;;;;;;1.10;99.90;;;;;;7336519;19;108644;-68
2023/12/03 04:57:41;;;;;;;;;;;1.10;99.90;;;;;;7334204;19;109365;-68
2023/12/03 05:00:09;;;;;;;;;;;1.10;99.90;;;;;;7332714;19;110430;-67
2023/12/03 05:02:36;;;;;;;;;;;1.10;99.90;;;;;;7331866;19;109860;-68
2023/12/03 05:05:05;;;;;;;;;;;1.10;99.90;;;;;;7330304;19;108532;-68
2023/12/03 05:07:32;;;;;;;;;;;1.10;99.90;;;;;;7329950;19;111307;-68
2023/12/03 05:09:59;;;;;;;;;;;1.00;99.90;;;;;;7331908;19;109929;-68
2023/12/03 05:12:26;;;;;;;;;;;1.00;99.90;;;;;;7331159;19;108830;-68
2023/12/03 05:14:54;;;;;;;;;;;1.00;99.90;;;;;;7335380;19;110406;-68
2023/12/03 05:17:21;;;;;;;;;;;0.90;99.90;;;;;;7343703;19;109090;-68
2023/12/03 05:19:48;;;;;;;;;;;0.90;99.90;;;;;;7337875;19;109110;-68
2023/12/03 05:22:15;;;;;;;;;;;0.90;99.90;;;;;;7335488;19;109681;-68
2023/12/03 05:24:42;;;;;;;;;;;0.90;99.90;;;;;;7338689;19;109876;-68
2023/12/03 05:27:09;;;;;;;;;;;0.90;99.90;;;;;;7339086;19;109097;-67
2023/12/03 05:29:40;;;;;;;;;;;0.90;99.90;;;;;;7334145;19;110042;-68
2023/12/03 05:32:07;;;;;;;;;;;0.80;99.90;;;;;;7338602;19;109197;-68
2023/12/03 05:34:35;;;;;;;;;;;0.90;99.90;;;;;;7337928;19;108566;-68
2023/12/03 05:37:03;;;;;;;;;;;0.90;99.90;;;;;;7337270;19;110392;-68
2023/12/03 05:39:30;;;;;;;;;;;0.90;99.90;;;;;;7342362;19;108825;-68
2023/12/03 05:41:58;;;;;;;;;;;0.90;99.90;;;;;;7338140;19;111025;-68
2023/12/03 05:44:25;;;;;;;;;;;0.90;99.90;;;;;;7337834;19;108747;-71
2023/12/03 05:46:53;;;;;;;;;;;0.90;99.90;;;;;;7336707;19;108692;-68
2023/12/03 05:49:20;;;;;;;;;;;0.90;99.90;;;;;;7337946;19;109916;-68
2023/12/03 05:51:47;;;;;;;;;;;0.90;99.90;;;;;;7338232;19;110159;-68
2023/12/03 05:54:14;;;;;;;;;;;0.90;99.90;;;;;;7335512;19;108637;-68
2023/12/03 05:56:43;;;;;;;;;;;0.90;99.90;;;;;;7337720;19;108968;-68
2023/12/03 05:59:14;;;;;;;;;;;0.90;99.90;;;;;;7335374;19;108897;-68
2023/12/03 06:01:41;;;;;;;;;;;0.90;99.90;;;;;;7339167;19;110259;-69
2023/12/03 06:04:08;;;;;;;;;;;0.90;99.90;;;;;;7341079;19;108807;-68
2023/12/03 06:06:35;;;;;;;;;;;0.90;99.90;;;;;;7336896;19;108778;-68
2023/12/03 06:09:04;;;;;;;;;;;0.90;99.90;;;;;;7337138;19;110266;-68
2023/12/03 06:11:35;;;;;;;;;;;0.90;99.90;;;;;;7337099;19;109159;-67
2023/12/03 06:14:03;;;;;;;;;;;0.90;99.90;;;;;;7336249;19;108818;-68
2023/12/03 06:16:31;;;;;;;;;;;0.90;99.90;;;;;;7332253;19;109199;-68
2023/12/03 06:18:58;;;;;;;;;;;0.90;99.90;;;;;;7337295;19;109528;-69
2023/12/03 06:21:25;;;;;;;;;;;0.90;99.90;;;;;;7338111;19;108400;-69
2023/12/03 06:23:53;;;;;;;;;;;0.90;99.90;;;;;;7336524;19;109783;-68
2023/12/03 06:26:20;;;;;;;;;;;0.90;99.90;;;;;;7335606;19;108670;-69
2023/12/03 06:28:47;;;;;;;;;;;0.80;99.90;;;;;;7336919;19;110214;-68
2023/12/03 06:31:15;;;;;;;;;;;0.80;99.90;;;;;;7333896;19;114237;-68
2023/12/03 06:33:42;;;;;;;;;;;0.80;99.90;;;;;;7335243;19;108663;-68
2023/12/03 06:36:09;;;;;;;;;;;0.80;99.90;;;;;;7337423;19;110269;-69
2023/12/03 06:38:37;;;;;;;;;;;0.80;99.90;;;;;;7336817;19;108562;-68
2023/12/03 06:41:04;;;;;;;;;;;0.80;99.90;;;;;;7334139;19;109980;-69
2023/12/03 06:43:31;;;;;;;;;;;0.80;99.90;;;;;;7337579;19;110212;-69
2023/12/03 06:45:59;;;;;;;;;;;0.80;99.90;;;;;;7336479;19;108320;-73
2023/12/03 06:48:26;;;;;;;;;;;0.80;99.90;;;;;;7333255;19;109213;-76
2023/12/03 06:53:37;;;;;;;;;;;0.80;99.90;;;;;;7336302;19;111042;-71
2023/12/03 06:58:39;;;;;;;;;;;0.80;99.90;;;;;;7336059;19;113757;-68
2023/12/03 07:01:09;;;;;;;;;;;0.80;99.90;;;;;;7336136;19;109291;-70
2023/12/03 07:03:36;;;;;;;;;;;0.80;99.90;;;;;;7337678;19;109318;-68
2023/12/03 07:06:04;;;;;;;;;;;0.80;99.90;;;;;;7337702;19;108956;-67
2023/12/03 07:08:31;;;;;;;;;;;0.70;99.90;;;;;;7331869;19;109926;-70
2023/12/03 07:10:59;;;;;;;;;;;0.70;99.90;;;;;;7334055;19;109039;-74
2023/12/03 07:13:26;;;;;;;;;;;0.70;99.90;;;;;;7333291;19;112057;-69
2023/12/03 07:15:54;;;;;;;;;;;0.70;99.90;;;;;;7328305;19;110092;-70
2023/12/03 07:18:21;;;;;;;;;;;0.70;99.90;;;;;;7328127;19;109673;-68
2023/12/03 07:20:48;;;;;;;;;;;0.70;99.90;;;;;;7329941;19;111779;-67
2023/12/03 07:23:16;;;;;;;;;;;0.70;99.90;;;;;;7330091;19;109645;-67
2023/12/03 07:25:43;;;;;;;;;;;0.70;99.90;;;;;;7337254;19;109138;-67
2023/12/03 07:28:11;;;;;;;;;;;0.70;99.90;;;;;;7335515;19;109046;-68
2023/12/03 07:30:38;;;;;;;;;;;0.80;99.90;;;;;;7326622;19;109919;-68
2023/12/03 07:33:05;;;;;;;;;;;0.80;99.90;;;;;;7335285;19;109400;-67
2023/12/03 07:35:32;;;;;;;;;;;0.80;99.90;;;;;;7332470;19;109782;-67
2023/12/03 07:37:59;;;;;;;;;;;0.70;99.90;;;;;;7333393;19;110044;-67
2023/12/03 07:40:26;;;;;;;;;;;0.70;99.90;;;;;;7332654;19;109080;-67
2023/12/03 07:42:53;;;;;;;;;;;0.80;99.90;;;;;;7334103;19;109495;-67
2023/12/03 07:45:21;;;;;;;;;;;0.70;99.90;;;;;;7333175;19;109481;-68
2023/12/03 07:47:49;;;;;;;;;;;0.70;99.90;;;;;;7334967;19;108735;-67
2023/12/03 07:50:16;;;;;;;;;;;0.80;99.90;;;;;;7338538;19;110475;-68
2023/12/03 07:52:43;;;;;;;;;;;0.80;99.90;;;;;;7333190;19;109702;-71
2023/12/03 07:55:11;;;;;;;;;;;0.80;99.90;;;;;;7330759;19;109267;-68
2023/12/03 07:57:38;;;;;;;;;;;0.80;99.90;;;;;;7330446;19;109327;-68
2023/12/03 08:00:06;;;;;;;;;;;0.80;99.90;;;;;;7330340;19;108874;-67
2023/12/03 08:02:33;;;;;;;;;;;0.80;99.90;;;;;;7333102;19;110568;-67
2023/12/03 08:05:00;;;;;;;;;;;0.90;99.90;;;;;;7333069;19;109796;-67
2023/12/03 08:07:27;;;;;;;;;;;0.80;99.90;;;;;;7333447;19;110711;-68
2023/12/03 08:09:55;;;;;;;;;;;0.90;99.90;;;;;;7331949;19;109854;-68
2023/12/03 08:12:22;;;;;;;;;;;0.90;99.90;;;;;;7338188;19;108679;-67
2023/12/03 08:14:49;;;;;;;;;;;0.90;99.90;;;;;;7331559;19;111016;-68
2023/12/03 08:17:16;;;;;;;;;;;0.90;99.90;;;;;;7332781;19;109207;-67
2023/12/03 08:19:43;;;;;;;;;;;1.00;99.90;;;;;;7335151;19;109939;-67
2023/12/03 08:22:11;;;;;;;;;;;1.00;99.90;;;;;;7333835;19;109682;-67
2023/12/03 08:24:38;;;;;;;;;;;1.10;99.90;;;;;;7333392;19;108466;-67
2023/12/03 08:27:05;;;;;;;;;;;1.10;99.90;;;;;;7334088;19;108751;-67
2023/12/03 08:29:32;;;;;;;;;;;1.10;99.90;;;;;;7326294;19;109675;-67
2023/12/03 08:32:00;;;;;;;;;;;1.10;99.90;;;;;;7341170;19;111086;-67
2023/12/03 08:34:28;;;;;;;;;;;1.10;99.90;;;;;;7329383;19;110157;-67
2023/12/03 08:36:56;;;;;;;;;;;1.10;99.90;;;;;;7334552;19;108701;-67
2023/12/03 08:39:23;;;;;;;;;;;1.20;99.90;;;;;;7332936;19;109318;-67
2023/12/03 08:41:50;;;;;;;;;;;1.20;99.90;;;;;;7332393;19;109482;-69
2023/12/03 08:44:18;;;;;;;;;;;1.20;99.90;;;;;;7331568;19;108848;-70
2023/12/03 08:46:45;;;;;;;;;;;1.30;99.90;;;;;;7326679;19;108957;-68
2023/12/03 08:49:12;;;;;;;;;;;1.30;99.90;;;;;;7325365;19;110977;-68
2023/12/03 08:51:39;;;;;;;;;;;1.30;99.90;;;;;;7327520;19;108763;-69
2023/12/03 08:54:06;;;;;;;;;;;1.40;99.90;;;;;;7337240;19;110670;-68
2023/12/03 08:56:34;;;;;;;;;;;1.40;99.90;;;;;;7328717;19;110918;-68
2023/12/03 08:59:01;;;;;;;;;;;1.40;99.90;;;;;;7326540;19;110436;-68
2023/12/03 09:01:28;;;;;;;;;;;1.40;99.90;;;;;;7331115;19;110462;-68
2023/12/03 09:03:56;;;;;;;;;;;1.40;99.90;;;;;;7330579;19;108440;-68
2023/12/03 09:06:23;;;;;;;;;;;1.50;99.90;;;;;;7328985;19;108937;-71
2023/12/03 09:08:51;;;;;;;;;;;1.50;99.90;;;;;;7332559;19;110104;-68
2023/12/03 09:11:18;;;;;;;;;;;1.50;99.90;;;;;;7330295;19;108830;-68
2023/12/03 09:13:45;;;;;;;;;;;1.50;99.90;;;;;;7334112;19;109139;-68
2023/12/03 09:16:12;;;;;;;;;;;1.60;99.90;;;;;;7335561;19;109467;-68
2023/12/03 09:18:39;;;;;;;;;;;1.60;99.90;;;;;;7333306;19;110436;-68
2023/12/03 09:21:12;;;;;;;;;;;1.60;99.90;;;;;;7326980;19;109583;-68
2023/12/03 09:23:40;;;;;;;;;;;1.60;99.90;;;;;;7333883;19;111937;-68
2023/12/03 09:26:07;;;;;;;;;;;1.60;99.90;;;;;;7328998;19;110400;-69
2023/12/03 09:28:34;;;;;;;;;;;1.70;99.90;;;;;;7327621;19;114784;-69
2023/12/03 09:31:02;;;;;;;;;;;1.70;99.90;;;;;;7329005;19;109497;-68
2023/12/03 09:33:29;;;;;;;;;;;1.70;99.90;;;;;;7330609;19;109033;-68
2023/12/03 09:35:56;;;;;;;;;;;1.80;99.90;;;;;;7326501;19;110621;-68
2023/12/03 09:38:23;;;;;;;;;;;1.80;99.90;;;;;;7334796;19;109667;-68
2023/12/03 09:40:55;;;;;;;;;;;1.80;99.90;;;;;;7332505;19;109472;-70
2023/12/03 09:43:26;;;;;;;;;;;1.80;99.90;;;;;;7331092;19;109398;-72
2023/12/03 09:45:55;;;;;;;;;;;1.80;99.90;;;;;;7333076;19;109413;-75
2023/12/03 09:48:24;;;;;;;;;;;1.80;99.90;;;;;;7327016;19;109180;-69
2023/12/03 09:50:53;;;;;;;;;;;1.80;99.90;;;;;;7328191;19;109778;-71
2023/12/03 09:53:20;;;;;;;;;;;1.90;99.90;;;;;;7327509;19;110435;-70
2023/12/03 09:55:48;;;;;;;;;;;1.90;99.90;;;;;;7331305;19;109719;-73
2023/12/03 09:58:19;;;;;;;;;;;2.00;99.90;;;;;;7353468;19;108836;-90
2023/12/03 10:03:24;;;;;;;;;;;2.10;99.90;;;;;;7339482;19;110280;-67
2023/12/03 10:05:52;;;;;;;;;;;2.10;99.90;;;;;;7337842;19;108752;-68
2023/12/03 10:08:22;;;;;;;;;;;2.10;99.90;;;;;;7332223;19;109289;-66
2023/12/03 10:10:54;;;;;;;;;;;2.20;99.90;;;;;;7337117;19;110275;-69
2023/12/03 10:13:22;;;;;;;;;;;2.30;99.90;;;;;;7337267;19;109556;-67
2023/12/03 10:15:49;;;;;;;;;;;2.30;99.90;;;;;;7335041;19;109454;-70
2023/12/03 10:18:18;;;;;;;;;;;2.30;99.90;;;;;;7336146;19;110280;-67
2023/12/03 10:20:46;;;;;;;;;;;2.30;99.90;;;;;;7340545;19;108910;-66
2023/12/03 10:23:14;;;;;;;;;;;2.40;99.90;;;;;;7337482;19;109582;-70
2023/12/03 10:25:41;;;;;;;;;;;2.40;99.90;;;;;;7339525;19;108680;-66
2023/12/03 10:28:09;;;;;;;;;;;2.50;99.90;;;;;;7336547;19;110568;-66
2023/12/03 10:30:39;;;;;;;;;;;2.50;99.90;;;;;;7336333;19;111082;-67
2023/12/03 10:33:06;;;;;;;;;;;2.50;99.90;;;;;;7335066;19;109070;-66
2023/12/03 10:35:35;;;;;;;;;;;2.60;99.90;;;;;;7335923;19;109358;-66
2023/12/03 10:38:07;;;;;;;;;;;2.60;99.90;;;;;;7337893;19;110378;-66
2023/12/03 10:40:35;;;;;;;;;;;2.70;99.90;;;;;;7335654;19;110478;-67
2023/12/03 10:43:03;;;;;;;;;;;2.70;99.90;;;;;;7341463;19;110880;-68
2023/12/03 10:45:32;;;;;;;;;;;2.80;99.90;;;;;;7333406;19;109872;-66
2023/12/03 10:48:01;;;;;;;;;;;2.80;99.90;;;;;;7334892;19;110213;-67
2023/12/03 10:50:29;;;;;;;;;;;2.90;99.90;;;;;;7331869;19;110297;-67
2023/12/03 10:52:58;;;;;;;;;;;3.00;99.90;;;;;;7337329;19;109033;-66
2023/12/03 10:55:26;;;;;;;;;;;3.10;99.90;;;;;;7332181;19;109843;-68
2023/12/03 10:58:00;;;;;;;;;;;3.20;99.90;;;;;;7337161;19;109435;-66
2023/12/03 11:00:30;;;;;;;;;;;3.30;99.90;;;;;;7335408;19;109543;-65
2023/12/03 11:03:17;;;;;;;;;;;3.30;99.90;;;;;;7335902;19;110537;-66
2023/12/03 11:05:54;;;;;;;;;;;3.30;99.90;;;;;;7342016;19;108425;-67
2023/12/03 11:08:22;;;;;;;;;;;3.40;99.90;;;;;;7333204;19;109405;-67
2023/12/03 11:10:53;;;;;;;;;;;3.40;99.90;;;;;;7337799;19;108259;-67
2023/12/03 11:13:21;;;;;;;;;;;3.40;99.90;;;;;;7331275;19;110657;-67
2023/12/03 11:16:03;;;;;;;;;;;3.50;99.90;;;;;;7331168;19;109573;-72
2023/12/03 11:18:31;;;;;;;;;;;3.50;99.90;;;;;;7336167;19;109312;-67
2023/12/03 11:21:10;;;;;;;;;;;3.60;99.90;;;;;;7335407;19;108852;-68
2023/12/03 11:23:53;;;;;;;;;;;3.60;99.90;;;;;;7337030;19;109408;-67
2023/12/03 11:26:20;;;;;;;;;;;3.70;99.90;;;;;;7334185;19;108712;-66
2023/12/03 11:28:54;;;;;;;;;;;3.80;99.90;;;;;;7334263;19;109769;-67
2023/12/03 11:31:24;;;;;;;;;;;3.90;99.90;;;;;;7333220;19;110139;-66
2023/12/03 11:33:58;;;;;;;;;;;4.00;99.90;;;;;;7334250;19;109833;-67
2023/12/03 11:36:36;;;;;;;;;;;4.20;99.90;;;;;;7329138;19;109186;-66
2023/12/03 11:39:03;;;;;;;;;;;4.20;99.90;;;;;;7334596;19;109281;-66
2023/12/03 11:41:56;;;;;;;;;;;4.20;99.90;;;;;;7333725;19;108650;-66
2023/12/03 11:44:25;;;;;;;;;;;4.30;99.90;;;;;;7333849;19;109247;-67
2023/12/03 11:47:04;;;;;;;;;;;4.30;99.90;;;;;;7336092;19;109355;-66
2023/12/03 11:49:35;;;;;;;;;;;4.30;99.90;;;;;;7331823;19;109825;-67
2023/12/03 11:52:03;;;;;;;;;;;4.30;99.90;;;;;;7340346;19;109450;-66
2023/12/03 11:54:48;;;;;;;;;;;4.30;99.90;;;;;;7334717;19;108884;-66
2023/12/03 11:57:16;;;;;;;;;;;4.30;99.90;;;;;;7333669;19;109834;-66
2023/12/03 11:59:43;;;;;;;;;;;4.30;99.90;;;;;;7334682;19;109126;-66
2023/12/03 12:02:11;;;;;;;;;;;4.20;99.90;;;;;;7331749;19;110624;-66
2023/12/03 12:04:38;;;;;;;;;;;4.20;99.90;;;;;;7334026;19;110527;-66
2023/12/03 12:07:16;;;;;;;;;;;4.20;99.90;;;;;;7326747;19;109659;-65
2023/12/03 12:09:47;;;;;;;;;;;4.20;99.90;;;;;;7333934;19;109374;-66
2023/12/03 12:12:15;;;;;;;;;;;4.20;99.90;;;;;;7334216;19;110358;-65
2023/12/03 12:14:43;;;;;;;;;;;4.20;99.90;;;;;;7338285;19;108845;-68
2023/12/03 12:17:11;;;;;;;;;;;4.20;99.90;;;;;;7332062;19;109093;-66
2023/12/03 12:19:45;;;;;;;;;;;4.20;99.90;;;;;;7329860;19;110470;-67
2023/12/03 12:22:12;;;;;;;;;;;4.20;99.90;;;;;;7332024;19;109456;-66
2023/12/03 12:24:39;;;;;;;;;;;4.30;99.90;;;;;;7334156;19;110215;-66
2023/12/03 12:27:06;;;;;;;;;;;4.30;99.90;;;;;;7334792;19;109312;-66
2023/12/03 12:29:34;;;;;;;;;;;4.30;99.90;;;;;;7331602;19;108525;-66
2023/12/03 12:32:01;;;;;;;;;;;4.40;99.90;;;;;;7333005;19;110321;-66
2023/12/03 12:34:29;;;;;;;;;;;4.40;99.90;;;;;;7336761;19;108683;-66
2023/12/03 12:37:06;;;;;;;;;;;4.50;99.90;;;;;;7330010;19;109442;-66
2023/12/03 12:39:33;;;;;;;;;;;4.50;99.90;;;;;;7332922;19;108910;-72
2023/12/03 12:42:01;;;;;;;;;;;4.50;99.90;;;;;;7332270;19;108266;-73
2023/12/03 12:44:41;;;;;;;;;;;4.40;99.90;;;;;;7331341;19;110287;-73
2023/12/03 12:47:15;;;;;;;;;;;4.30;99.90;;;;;;7329711;19;110585;-66
2023/12/03 12:49:57;;;;;;;;;;;4.30;99.90;;;;;;7329826;19;109541;-66
2023/12/03 12:52:25;;;;;;;;;;;4.30;99.90;;;;;;7331876;19;109326;-66
2023/12/03 12:54:57;;;;;;;;;;;4.30;99.90;;;;;;7331081;19;108751;-73
2023/12/03 12:57:32;;;;;;;;;;;4.30;99.90;;;;;;7334799;19;111003;-74
2023/12/03 12:59:59;;;;;;;;;;;4.30;99.90;;;;;;7333243;19;115232;-66
2023/12/03 13:02:27;;;;;;;;;;;4.30;99.90;;;;;;7329289;19;109175;-71
2023/12/03 13:04:54;;;;;;;;;;;4.20;99.90;;;;;;7333182;19;109806;-66
2023/12/03 13:07:21;;;;;;;;;;;4.20;99.90;;;;;;7330453;19;109122;-66
2023/12/03 13:09:49;;;;;;;;;;;4.20;99.90;;;;;;7334030;19;110821;-65
2023/12/03 13:12:16;;;;;;;;;;;4.20;99.90;;;;;;7329439;19;109641;-66
2023/12/03 13:14:43;;;;;;;;;;;4.20;99.90;;;;;;7330973;19;108725;-67
2023/12/03 13:17:12;;;;;;;;;;;4.20;99.90;;;;;;7327717;19;109984;-66
2023/12/03 13:19:39;;;;;;;;;;;4.20;99.90;;;;;;7336853;19;110258;-66
2023/12/03 13:22:06;;;;;;;;;;;4.20;99.90;;;;;;7336640;19;109850;-66
2023/12/03 13:24:33;;;;;;;;;;;4.20;99.90;;;;;;7330700;19;109573;-66
2023/12/03 13:27:01;;;;;;;;;;;4.20;99.90;;;;;;7331233;19;108896;-66
2023/12/03 13:29:28;;;;;;;;;;;4.10;99.90;;;;;;7330689;19;109441;-66
2023/12/03 13:31:55;;;;;;;;;;;4.10;99.90;;;;;;7330044;19;110911;-66
2023/12/03 13:34:23;;;;;;;;;;;4.00;99.90;;;;;;7330378;19;110339;-66
2023/12/03 13:36:50;;;;;;;;;;;3.90;99.90;;;;;;7336289;19;108604;-65
2023/12/03 13:39:18;;;;;;;;;;;3.80;99.90;;;;;;7337770;19;109199;-66
2023/12/03 13:41:45;;;;;;;;;;;3.80;99.90;;;;;;7341891;19;108777;-66
2023/12/03 13:44:12;;;;;;;;;;;3.70;99.90;;;;;;7337109;19;109100;-66
2023/12/03 13:46:39;;;;;;;;;;;3.70;99.90;;;;;;7336815;19;108816;-65
2023/12/03 13:49:06;;;;;;;;;;;3.60;99.90;;;;;;7336635;19;109137;-66
2023/12/03 13:51:34;;;;;;;;;;;3.60;99.90;;;;;;7336317;19;111079;-66
2023/12/03 13:54:01;;;;;;;;;;;3.50;99.90;;;;;;7339651;19;109700;-67
2023/12/03 13:56:28;;;;;;;;;;;3.50;99.90;;;;;;7336397;19;108958;-66
2023/12/03 13:58:55;;;;;;;;;;;3.50;99.90;;;;;;7337540;19;110047;-67
2023/12/03 14:01:22;;;;;;;;;;;3.50;99.90;;;;;;7338101;19;109127;-67
2023/12/03 14:03:50;;;;;;;;;;;3.50;99.90;;;;;;7341668;19;113800;-67
2023/12/03 14:06:18;;;;;;;;;;;3.40;99.90;;;;;;7338031;19;109300;-67
2023/12/03 14:08:45;;;;;;;;;;;3.50;99.90;;;;;;7334994;19;108840;-66
2023/12/03 14:11:13;;;;;;;;;;;3.40;99.90;;;;;;7336810;19;109596;-67
2023/12/03 14:13:40;;;;;;;;;;;3.40;99.90;;;;;;7337119;19;114787;-67
2023/12/03 14:16:07;;;;;;;;;;;3.40;99.90;;;;;;7335970;19;110095;-66
2023/12/03 14:18:34;;;;;;;;;;;3.40;99.90;;;;;;7338116;19;113499;-66
2023/12/03 14:21:04;;;;;;;;;;;3.30;99.90;;;;;;7336407;19;110689;-67
2023/12/03 14:23:31;;;;;;;;;;;3.30;99.90;;;;;;7333492;19;110181;-66
2023/12/03 14:25:58;;;;;;;;;;;3.30;99.90;;;;;;7341077;19;109108;-66
2023/12/03 14:28:25;;;;;;;;;;;3.30;99.90;;;;;;7334820;19;109381;-67
2023/12/03 14:30:52;;;;;;;;;;;3.30;99.90;;;;;;7333450;19;111504;-68